Time;durP1;ratioP1;P1;durP2;ratioP2;P2;SDS_P1;SDS_P2;PMS_P1;PMS_P2;Temp;Humidity;BMP_temperature;BMP_pressure;BME280_temperature;BME280_humidity;BME280_pressure;Samples;Min_cycle;Max_cycle;Signal;HPM_P1;HPM_P2
2023/10/09 00:02:58;;;;;;;4.60;1.50;;;18.10;91.10;;;;;;4975500;28;20034;-83
2023/10/09 00:05:37;;;;;;;3.35;1.45;;;18.20;91.10;;;;;;4958762;28;20135;-85
2023/10/09 00:08:03;;;;;;;4.13;1.52;;;18.20;91.10;;;;;;4958782;28;20027;-85
2023/10/09 00:10:35;;;;;;;4.05;1.50;;;18.20;91.00;;;;;;4958697;28;20045;-85
2023/10/09 00:13:01;;;;;;;3.53;1.30;;;18.20;91.00;;;;;;4975794;28;20059;-85
2023/10/09 00:15:27;;;;;;;3.85;1.38;;;18.20;91.00;;;;;;4958691;28;20050;-85
2023/10/09 00:17:55;;;;;;;3.63;1.40;;;18.20;91.00;;;;;;4958624;28;20503;-85
2023/10/09 00:20:24;;;;;;;3.13;1.33;;;18.20;91.00;;;;;;4975764;28;20015;-85
2023/10/09 00:22:51;;;;;;;3.92;1.48;;;18.20;91.00;;;;;;4958227;28;20022;-84
2023/10/09 00:25:29;;;;;;;4.50;1.42;;;18.20;91.00;;;;;;4958566;28;20031;-85
2023/10/09 00:27:55;;;;;;;3.67;1.70;;;18.20;91.00;;;;;;4958408;28;20037;-85
2023/10/09 00:30:29;;;;;;;4.18;1.60;;;18.20;91.00;;;;;;4958428;28;20046;-84
2023/10/09 00:33:07;;;;;;;4.57;1.50;;;18.20;91.00;;;;;;4975033;28;20023;-85
2023/10/09 00:35:36;;;;;;;4.72;1.63;;;18.20;91.00;;;;;;4958090;28;20030;-84
2023/10/09 00:38:13;;;;;;;3.13;1.40;;;18.20;91.00;;;;;;4958016;28;20031;-85
2023/10/09 00:40:45;;;;;;;3.28;1.60;;;18.20;91.00;;;;;;4958041;28;20033;-85
2023/10/09 00:43:13;;;;;;;3.33;1.60;;;18.10;91.00;;;;;;4975241;28;20023;-85
2023/10/09 00:45:40;;;;;;;2.15;1.15;;;18.10;91.00;;;;;;4958217;28;20023;-84
2023/10/09 00:48:08;;;;;;;3.90;1.42;;;18.10;91.00;;;;;;4958030;28;20054;-85
2023/10/09 00:50:35;;;;;;;2.97;1.38;;;18.10;91.10;;;;;;4957999;28;20397;-85
2023/10/09 00:53:11;;;;;;;4.28;1.50;;;18.10;91.10;;;;;;4957723;28;20030;-84
2023/10/09 00:55:44;;;;;;;3.75;1.60;;;18.20;91.10;;;;;;4957859;28;20373;-85
2023/10/09 00:58:13;;;;;;;3.75;1.30;;;18.10;91.10;;;;;;4975224;28;20023;-85
2023/10/09 01:00:46;;;;;;;4.78;1.77;;;18.20;91.10;;;;;;4957800;28;20113;-85
2023/10/09 01:08:30;;;;;;;3.58;1.63;;;18.10;91.10;;;;;;4975435;28;20113;-85
2023/10/09 01:10:58;;;;;;;4.15;1.52;;;18.20;91.10;;;;;;4974936;28;20051;-85
2023/10/09 01:13:52;;;;;;;3.20;1.50;;;18.20;91.10;;;;;;4974611;28;20085;-85
2023/10/09 01:16:15;;;;;;;3.05;1.40;;;18.20;91.10;;;;;;4974512;28;20481;-85
2023/10/09 01:18:41;;;;;;;5.05;1.50;;;18.20;91.00;;;;;;4957517;28;20023;-85
2023/10/09 01:21:06;;;;;;;3.58;1.60;;;18.20;91.00;;;;;;4957318;28;20030;-85
2023/10/09 01:23:32;;;;;;;3.17;1.40;;;18.20;91.10;;;;;;4974510;28;20418;-85
2023/10/09 01:25:57;;;;;;;2.60;1.17;;;18.20;91.10;;;;;;4957329;28;20086;-84
2023/10/09 01:28:24;;;;;;;4.53;1.40;;;18.20;91.10;;;;;;4974589;28;20473;-85
2023/10/09 01:30:51;;;;;;;3.85;1.45;;;18.20;91.10;;;;;;4957293;28;20062;-85
2023/10/09 01:33:24;;;;;;;3.13;1.58;;;18.20;91.10;;;;;;4974136;28;20019;-85
2023/10/09 01:35:55;;;;;;;3.72;1.60;;;18.20;91.10;;;;;;4974708;28;20027;-84
2023/10/09 01:38:30;;;;;;;3.13;1.40;;;18.10;91.10;;;;;;4974507;28;20513;-85
2023/10/09 01:41:03;;;;;;;3.58;1.42;;;18.10;91.10;;;;;;4957133;28;20078;-85
2023/10/09 01:43:29;;;;;;;3.55;1.58;;;18.10;91.10;;;;;;4956219;28;20034;-85
2023/10/09 01:45:54;;;;;;;3.72;1.50;;;18.10;91.10;;;;;;4956776;28;20054;-85
2023/10/09 01:48:24;;;;;;;3.55;1.60;;;18.10;91.10;;;;;;4956855;28;20019;-85
2023/10/09 01:50:49;;;;;;;3.03;1.40;;;18.10;91.10;;;;;;4974176;28;20034;-85
2023/10/09 01:53:18;;;;;;;3.28;1.50;;;18.10;91.20;;;;;;4956595;28;20022;-85
2023/10/09 01:55:45;;;;;;;4.05;1.70;;;18.10;91.20;;;;;;4956814;28;20027;-85
2023/10/09 02:00:49;;;;;;;3.90;1.40;;;18.10;91.20;;;;;;4974391;28;20031;-85
2023/10/09 02:03:15;;;;;;;3.63;1.60;;;18.10;91.20;;;;;;4956245;28;20023;-85
2023/10/09 02:05:44;;;;;;;2.67;1.27;;;18.10;91.20;;;;;;4956656;28;20054;-85
2023/10/09 02:08:13;;;;;;;3.67;1.50;;;18.10;91.20;;;;;;4973959;28;20026;-85
2023/10/09 02:10:39;;;;;;;3.90;1.63;;;18.10;91.20;;;;;;4973927;28;20019;-85
2023/10/09 02:13:06;;;;;;;3.78;1.67;;;18.10;91.20;;;;;;4956554;28;20071;-85
2023/10/09 02:23:39;;;;;;;3.03;1.60;;;18.20;91.10;;;;;;4973798;28;20027;-85
2023/10/09 02:26:06;;;;;;;2.95;1.50;;;18.20;91.20;;;;;;4956568;28;20029;-85
2023/10/09 02:28:32;;;;;;;3.20;1.50;;;18.20;91.20;;;;;;4956869;28;20023;-84
2023/10/09 02:31:00;;;;;;;3.70;1.42;;;18.10;91.10;;;;;;4956373;28;20027;-85
2023/10/09 02:33:30;;;;;;;3.88;1.67;;;18.10;91.10;;;;;;4956256;28;20030;-83
2023/10/09 02:35:59;;;;;;;3.67;1.60;;;18.10;91.10;;;;;;4956153;28;20043;-85
2023/10/09 02:38:26;;;;;;;4.10;1.70;;;18.10;91.20;;;;;;4956373;28;20029;-85
2023/10/09 02:43:44;;;;;;;3.85;1.52;;;18.10;91.20;;;;;;4973668;28;20023;-85
2023/10/09 02:46:17;;;;;;;3.55;1.70;;;18.10;91.20;;;;;;4956232;28;20097;-85
2023/10/09 02:48:48;;;;;;;3.75;1.70;;;18.10;91.20;;;;;;4957316;28;20144;-85
2023/10/09 02:51:31;;;;;;;3.43;1.50;;;18.10;91.20;;;;;;4956476;28;20026;-85
2023/10/09 02:54:06;;;;;;;3.83;1.70;;;18.10;91.20;;;;;;4956284;28;20281;-85
2023/10/09 02:56:42;;;;;;;3.85;1.80;;;18.10;91.30;;;;;;4959065;28;20519;-85
2023/10/09 02:59:08;;;;;;;3.00;1.55;;;18.10;91.20;;;;;;4959952;28;20042;-85
2023/10/09 03:01:39;;;;;;;2.60;1.50;;;18.10;91.30;;;;;;4959924;28;20023;-85
2023/10/09 03:04:05;;;;;;;3.58;1.48;;;18.10;91.30;;;;;;4959465;28;20028;-85
2023/10/09 03:06:34;;;;;;;3.35;1.58;;;18.10;91.30;;;;;;4959979;28;20041;-85
2023/10/09 03:09:01;;;;;;;3.28;1.50;;;18.10;91.30;;;;;;4977209;28;20019;-85
2023/10/09 03:11:26;;;;;;;3.58;1.48;;;18.10;91.30;;;;;;4959823;28;20050;-85
2023/10/09 03:13:52;;;;;;;2.47;1.33;;;18.10;91.30;;;;;;4959638;28;20061;-85
2023/10/09 03:16:19;;;;;;;2.55;1.50;;;18.10;91.20;;;;;;4959908;28;20089;-85
2023/10/09 03:18:46;;;;;;;3.63;1.58;;;18.10;91.20;;;;;;4959653;28;20045;-84
2023/10/09 03:21:14;;;;;;;3.10;1.42;;;18.20;91.20;;;;;;4959617;28;20030;-85
2023/10/09 03:23:40;;;;;;;3.92;1.55;;;18.10;91.20;;;;;;4976634;28;20097;-85
2023/10/09 03:26:07;;;;;;;3.15;1.58;;;18.20;91.20;;;;;;4974602;28;20035;-84
2023/10/09 03:28:33;;;;;;;3.83;1.70;;;18.10;91.20;;;;;;4952346;28;20488;-84
2023/10/09 03:31:02;;;;;;;3.30;1.50;;;18.10;91.20;;;;;;4975704;28;20027;-84
2023/10/09 03:33:32;;;;;;;3.42;1.70;;;18.00;91.20;;;;;;4958208;28;20023;-85
2023/10/09 03:35:59;;;;;;;3.55;1.60;;;18.10;91.20;;;;;;4976294;28;20577;-85
2023/10/09 03:38:25;;;;;;;2.92;1.58;;;18.10;91.20;;;;;;4958179;28;20030;-85
2023/10/09 03:40:51;;;;;;;3.67;2.03;;;18.10;91.20;;;;;;4975347;28;20023;-84
2023/10/09 03:43:17;;;;;;;3.35;1.65;;;18.10;91.20;;;;;;4958251;28;20070;-85
2023/10/09 03:45:52;;;;;;;3.55;1.60;;;18.10;91.30;;;;;;4957945;28;20034;-84
2023/10/09 03:48:22;;;;;;;3.83;1.50;;;18.10;91.30;;;;;;4957534;28;20078;-85
2023/10/09 03:50:48;;;;;;;3.77;1.70;;;18.10;91.30;;;;;;4957652;28;20023;-85
2023/10/09 03:58:50;;;;;;;3.83;1.90;;;18.10;91.30;;;;;;5397823;23;20452;-85
2023/10/09 04:01:29;;;;;;;4.43;1.92;;;18.10;91.30;;;;;;4972813;28;20342;-84
2023/10/09 04:14:54;;;;;;;3.38;1.60;;;18.10;91.30;;;;;;4965737;28;20107;-84
2023/10/09 04:17:33;;;;;;;2.75;1.67;;;18.10;91.30;;;;;;4955739;28;20476;-83
2023/10/09 04:22:50;;;;;;;2.78;1.50;;;18.10;91.30;;;;;;4973462;28;20050;-83
2023/10/09 04:25:25;;;;;;;3.67;1.80;;;18.10;91.30;;;;;;4956133;28;20081;-84
2023/10/09 04:30:42;;;;;;;3.67;1.50;;;18.10;91.30;;;;;;4973619;28;20145;-84
2023/10/09 04:33:28;;;;;;;3.58;1.55;;;18.10;91.30;;;;;;4953228;28;20026;-85
2023/10/09 04:44:20;;;;;;;5.22;1.80;;;18.10;91.30;;;;;;4971107;28;20027;-85
2023/10/09 04:47:18;;;;;;;3.72;1.80;;;18.10;91.40;;;;;;4954496;28;20037;-85
2023/10/09 04:58:23;;;;;;;3.92;1.70;;;18.10;91.40;;;;;;4970994;28;20027;-85
2023/10/09 05:03:12;;;;;;;4.15;1.70;;;18.00;91.40;;;;;;4971340;28;20027;-85
2023/10/09 05:16:15;;;;;;;56.53;10.85;;;18.20;90.60;;;;;;4974648;28;20054;-84
2023/10/09 05:18:45;;;;;;;56.72;9.80;;;18.20;90.70;;;;;;4955647;28;20038;-84
2023/10/09 05:32:03;;;;;;;38.40;9.35;;;18.10;90.60;;;;;;4972598;28;20031;-84
2023/10/09 05:34:40;;;;;;;28.88;8.20;;;18.10;90.80;;;;;;4955100;28;20023;-84
2023/10/09 05:37:24;;;;;;;41.72;9.63;;;18.10;90.80;;;;;;4956458;28;20037;-85
2023/10/09 05:42:42;;;;;;;29.40;8.63;;;18.10;90.90;;;;;;4973464;28;20396;-84
2023/10/09 05:47:53;;;;;;;26.45;9.00;;;18.00;90.90;;;;;;4973645;28;20031;-85
2023/10/09 06:08:47;;;;;;;23.48;7.50;;;18.00;91.10;;;;;;4973523;28;20102;-84
2023/10/09 06:14:04;;;;;;;23.17;8.13;;;18.00;91.10;;;;;;4973258;28;20030;-84
2023/10/09 06:19:28;;;;;;;20.50;8.05;;;18.10;91.20;;;;;;4973373;28;20041;-84
2023/10/09 06:24:33;;;;;;;20.52;7.82;;;18.10;91.10;;;;;;4972936;28;20023;-84
2023/10/09 06:34:53;;;;;;;17.85;6.63;;;18.10;91.10;;;;;;4973229;28;20026;-84
2023/10/09 06:45:09;;;;;;;16.08;7.03;;;18.00;91.20;;;;;;4984291;28;20026;-84
2023/10/09 06:47:41;;;;;;;19.13;6.47;;;18.00;91.20;;;;;;4975238;28;20398;-84
2023/10/09 06:50:55;;;;;;;16.60;6.90;;;18.00;91.20;;;;;;4975089;28;20220;-84
2023/10/09 06:53:19;;;;;;;18.15;6.65;;;18.00;91.20;;;;;;4989707;28;20408;-84
2023/10/09 06:55:50;;;;;;;17.40;6.55;;;18.10;91.30;;;;;;4992153;28;20027;-85
2023/10/09 06:58:25;;;;;;;12.07;6.28;;;18.00;91.30;;;;;;4974787;28;20030;-85
2023/10/09 07:03:36;;;;;;;17.85;6.53;;;18.00;91.30;;;;;;4992281;28;20028;-84
2023/10/09 07:06:09;;;;;;;13.30;6.68;;;18.00;91.30;;;;;;4992368;28;20026;-84
2023/10/09 07:08:44;;;;;;;16.20;6.63;;;18.00;91.30;;;;;;4974704;28;20488;-84
2023/10/09 07:11:56;;;;;;;13.32;5.90;;;18.00;91.30;;;;;;4992636;28;20018;-84
2023/10/09 07:17:04;;;;;;;14.57;6.25;;;18.00;91.30;;;;;;4991981;28;20026;-84
2023/10/09 07:22:03;;;;;;;16.02;6.43;;;18.00;91.20;;;;;;4992184;28;20023;-83
2023/10/09 07:24:43;;;;;;;12.98;6.00;;;18.00;91.20;;;;;;4974272;28;20459;-84
2023/10/09 07:27:14;;;;;;;12.82;5.55;;;18.10;91.30;;;;;;4974556;28;20444;-84
2023/10/09 07:29:49;;;;;;;11.90;5.75;;;18.10;91.20;;;;;;4974715;28;20026;-85
2023/10/09 07:32:20;;;;;;;11.50;5.70;;;18.10;91.20;;;;;;4974298;28;20026;-84
2023/10/09 07:34:52;;;;;;;11.90;5.95;;;18.10;91.30;;;;;;4974670;28;20113;-85
2023/10/09 07:37:37;;;;;;;9.32;5.80;;;18.10;91.30;;;;;;4991813;28;20300;-84
2023/10/09 07:40:07;;;;;;;12.35;6.43;;;18.10;91.30;;;;;;4974561;28;20292;-85
2023/10/09 07:42:43;;;;;;;11.48;6.00;;;18.00;91.30;;;;;;4975584;28;20030;-85
2023/10/09 07:46:29;;;;;;;14.00;6.10;;;18.00;91.30;;;;;;4977981;28;20081;-85
2023/10/09 07:48:05;;;;;;;13.43;5.68;;;18.00;91.30;;;;;;4995088;28;20025;-84
2023/10/09 07:50:40;;;;;;;12.02;6.13;;;18.00;91.30;;;;;;4977875;28;20023;-84
2023/10/09 07:53:25;;;;;;;12.25;6.15;;;18.00;91.30;;;;;;4977447;28;20034;-84
2023/10/09 07:55:55;;;;;;;11.27;5.50;;;18.00;91.30;;;;;;4977868;28;20306;-85
2023/10/09 07:58:25;;;;;;;10.63;6.22;;;18.00;91.40;;;;;;4977652;28;20031;-84
2023/10/09 08:01:07;;;;;;;12.13;5.60;;;18.00;91.40;;;;;;4977750;28;20026;-84
2023/10/09 08:03:36;;;;;;;12.43;5.70;;;18.00;91.40;;;;;;4977422;28;20063;-84
2023/10/09 08:09:47;;;;;;;11.05;5.63;;;18.00;91.40;;;;;;4995310;28;20096;-85
2023/10/09 08:12:13;;;;;;;11.20;5.60;;;18.00;91.40;;;;;;4981807;28;20073;-84
2023/10/09 08:14:43;;;;;;;11.05;5.38;;;18.00;91.40;;;;;;4977363;28;20029;-85
2023/10/09 08:17:15;;;;;;;13.88;5.15;;;18.00;91.40;;;;;;4977197;28;20491;-85
2023/10/09 08:19:54;;;;;;;9.48;5.43;;;18.00;91.40;;;;;;4977420;28;20034;-84
2023/10/09 08:24:58;;;;;;;10.65;5.25;;;18.00;91.40;;;;;;4994849;28;20516;-84
2023/10/09 08:32:40;;;;;;;10.50;5.63;;;18.10;91.30;;;;;;4994475;28;20041;-84
2023/10/09 08:37:51;;;;;;;9.38;5.32;;;18.00;91.30;;;;;;4994416;28;20531;-84
2023/10/09 08:40:20;;;;;;;9.77;4.80;;;18.00;91.30;;;;;;4976976;28;20034;-84
2023/10/09 08:42:53;;;;;;;9.25;4.80;;;18.00;91.40;;;;;;4976587;28;20023;-85
2023/10/09 08:45:27;;;;;;;10.30;5.30;;;18.00;91.40;;;;;;4976739;28;20022;-85
2023/10/09 08:47:56;;;;;;;9.35;5.13;;;18.00;91.40;;;;;;4976795;28;20548;-84
2023/10/09 08:50:22;;;;;;;10.25;5.35;;;18.00;91.40;;;;;;4976372;28;20031;-84
2023/10/09 08:52:49;;;;;;;9.48;5.40;;;18.00;91.40;;;;;;4976138;28;20030;-84
2023/10/09 08:55:17;;;;;;;8.13;4.75;;;18.00;91.40;;;;;;4994089;28;20070;-84
2023/10/09 08:57:44;;;;;;;9.88;4.80;;;18.00;91.40;;;;;;4976707;28;20026;-84
2023/10/09 09:00:21;;;;;;;9.98;4.82;;;18.00;91.50;;;;;;4976630;28;20022;-85
2023/10/09 09:02:47;;;;;;;9.73;5.43;;;18.00;91.50;;;;;;4976279;28;20030;-84
2023/10/09 09:05:20;;;;;;;8.25;4.78;;;18.00;91.50;;;;;;4976313;28;20022;-85
2023/10/09 09:07:46;;;;;;;10.27;4.82;;;18.00;91.70;;;;;;4976461;28;20093;-84
2023/10/09 09:10:20;;;;;;;10.80;5.50;;;18.00;91.50;;;;;;4976308;28;20040;-84
2023/10/09 09:12:46;;;;;;;9.20;4.65;;;18.00;91.50;;;;;;4976079;28;20065;-84
2023/10/09 09:15:19;;;;;;;9.23;4.68;;;18.00;91.50;;;;;;4976244;28;20054;-85
2023/10/09 09:17:45;;;;;;;10.40;5.03;;;18.00;91.50;;;;;;4993417;28;20054;-85
2023/10/09 09:20:27;;;;;;;9.38;5.13;;;18.00;91.50;;;;;;4976261;28;20031;-84
2023/10/09 09:22:57;;;;;;;9.77;4.97;;;18.00;91.50;;;;;;4975887;28;20048;-85
2023/10/09 09:25:46;;;;;;;7.93;4.53;;;18.10;91.50;;;;;;4976028;28;20050;-84
2023/10/09 09:28:12;;;;;;;9.15;4.90;;;18.00;91.40;;;;;;4975961;28;20030;-84
2023/10/09 09:30:40;;;;;;;9.18;5.03;;;18.00;91.50;;;;;;4975984;28;20030;-84
2023/10/09 09:33:26;;;;;;;8.20;4.60;;;18.10;91.40;;;;;;4975801;28;20117;-85
2023/10/09 09:35:57;;;;;;;8.98;4.75;;;18.10;91.40;;;;;;4975914;28;20384;-85
2023/10/09 09:38:25;;;;;;;7.95;4.63;;;18.00;91.40;;;;;;4975678;28;20385;-84
2023/10/09 09:40:53;;;;;;;8.23;4.97;;;18.00;91.40;;;;;;4975831;28;20026;-84
2023/10/09 09:43:22;;;;;;;7.32;4.53;;;18.00;91.40;;;;;;4975351;28;20492;-85
2023/10/09 09:45:49;;;;;;;10.30;4.75;;;18.00;91.40;;;;;;4976053;28;20022;-84
2023/10/09 09:48:16;;;;;;;8.48;4.47;;;18.00;91.40;;;;;;4993037;28;20023;-85
2023/10/09 09:50:45;;;;;;;9.05;4.70;;;18.00;91.40;;;;;;4975780;28;20065;-84
2023/10/09 09:53:18;;;;;;;7.20;4.30;;;18.00;91.50;;;;;;4975161;28;20503;-85
2023/10/09 09:55:55;;;;;;;8.52;4.38;;;18.00;91.50;;;;;;4975657;28;20034;-85
2023/10/09 09:58:23;;;;;;;9.68;5.00;;;18.00;91.50;;;;;;4975322;28;20026;-85
2023/10/09 10:00:55;;;;;;;8.65;4.60;;;18.00;91.50;;;;;;4975637;28;20104;-84
2023/10/09 10:03:32;;;;;;;9.00;4.55;;;18.00;91.50;;;;;;4992573;28;20491;-85
2023/10/09 10:06:04;;;;;;;9.18;5.20;;;18.00;91.60;;;;;;4974904;28;20077;-84
2023/10/09 10:08:32;;;;;;;8.05;4.43;;;18.00;91.50;;;;;;4975520;28;20022;-85
2023/10/09 10:11:04;;;;;;;7.05;4.20;;;18.00;91.60;;;;;;4975377;28;20025;-84
2023/10/09 10:13:42;;;;;;;7.72;4.20;;;18.00;91.60;;;;;;4975016;28;20022;-85
2023/10/09 10:16:13;;;;;;;7.38;4.53;;;18.00;91.60;;;;;;4975123;28;20022;-84
2023/10/09 10:19:07;;;;;;;7.95;4.70;;;18.00;91.60;;;;;;4975106;28;20089;-85
2023/10/09 10:24:25;;;;;;;8.73;4.43;;;18.00;91.60;;;;;;4992274;28;20018;-84
2023/10/09 10:27:18;;;;;;;7.47;4.10;;;18.10;91.60;;;;;;4992512;28;20485;-84
2023/10/09 10:29:46;;;;;;;7.53;4.20;;;18.00;91.50;;;;;;4975337;28;20089;-84
2023/10/09 10:32:12;;;;;;;8.07;4.15;;;18.00;91.40;;;;;;4974788;28;20050;-84
2023/10/09 10:35:06;;;;;;;8.30;4.40;;;18.00;91.40;;;;;;4975151;28;20034;-85
2023/10/09 10:37:50;;;;;;;7.28;4.13;;;18.10;91.40;;;;;;4971671;28;20038;-84
2023/10/09 10:40:39;;;;;;;8.07;4.30;;;18.10;91.40;;;;;;4975585;28;20057;-84
2023/10/09 10:43:13;;;;;;;7.93;4.32;;;18.10;91.50;;;;;;4992886;28;20097;-84
2023/10/09 10:45:45;;;;;;;7.43;4.15;;;18.10;91.50;;;;;;4975885;28;20381;-84
2023/10/09 10:48:22;;;;;;;;;;;18.00;91.40;;;;;;4975871;28;20484;-84
2023/10/09 10:50:57;;;;;;;8.75;4.10;;;18.00;91.50;;;;;;4975598;28;19906;-84
2023/10/09 10:53:26;;;;;;;7.43;4.10;;;18.00;91.50;;;;;;4975317;28;20026;-84
2023/10/09 10:56:18;;;;;;;7.90;4.45;;;18.00;91.50;;;;;;4975510;28;20058;-84
2023/10/09 11:01:50;;;;;;;7.63;4.30;;;18.00;91.60;;;;;;4993218;28;20030;-84
2023/10/09 11:07:16;;;;;;;7.15;3.97;;;18.00;91.60;;;;;;4993569;28;20057;-84
2023/10/09 11:12:45;;;;;;;7.55;4.00;;;18.00;91.60;;;;;;4992863;28;20444;-84
2023/10/09 11:18:07;;;;;;;7.63;4.28;;;18.00;91.60;;;;;;4995751;28;20030;-84
2023/10/09 11:20:53;;;;;;;7.60;4.30;;;18.00;91.60;;;;;;4979241;28;20031;-84
2023/10/09 11:23:29;;;;;;;6.35;3.70;;;18.00;91.60;;;;;;4979001;28;20025;-84
2023/10/09 11:26:17;;;;;;;7.78;4.22;;;18.00;91.60;;;;;;4979050;28;20022;-84
2023/10/09 11:28:48;;;;;;;7.00;4.10;;;18.00;91.60;;;;;;4996081;28;20094;-84
2023/10/09 11:31:17;;;;;;;6.47;3.78;;;18.00;91.60;;;;;;4978828;28;20023;-84
2023/10/09 11:33:45;;;;;;;7.03;4.20;;;18.00;91.50;;;;;;4978440;28;20023;-84
2023/10/09 11:36:11;;;;;;;8.27;4.18;;;18.00;91.50;;;;;;4978715;28;20455;-85
2023/10/09 11:38:38;;;;;;;7.10;4.40;;;18.00;91.50;;;;;;4996000;28;20102;-84
2023/10/09 11:41:22;;;;;;;7.20;3.53;;;18.00;91.50;;;;;;4978515;28;20026;-84
2023/10/09 11:43:52;;;;;;;7.72;4.18;;;18.00;91.50;;;;;;4978595;28;20046;-84
2023/10/09 11:46:37;;;;;;;6.70;3.65;;;18.00;91.50;;;;;;4978619;28;20022;-84
2023/10/09 11:54:33;;;;;;;7.03;3.92;;;18.00;91.60;;;;;;4996107;28;20110;-84
2023/10/09 11:57:00;;;;;;;8.57;4.32;;;18.00;91.60;;;;;;4978360;28;20388;-84
2023/10/09 11:59:27;;;;;;;7.63;4.15;;;18.00;91.60;;;;;;4978367;28;20080;-84
2023/10/09 12:01:54;;;;;;;7.82;4.35;;;18.00;91.60;;;;;;4978124;28;20033;-84
2023/10/09 12:04:20;;;;;;;8.05;4.00;;;18.00;91.60;;;;;;4978228;28;20053;-84
2023/10/09 12:06:45;;;;;;;6.82;4.10;;;18.00;91.60;;;;;;4978238;28;20026;-84
2023/10/09 12:09:23;;;;;;;6.88;3.83;;;18.00;91.80;;;;;;4978144;28;20069;-84
2023/10/09 12:11:52;;;;;;;7.22;4.10;;;18.00;91.60;;;;;;4978254;28;20077;-84
2023/10/09 12:14:23;;;;;;;7.05;4.00;;;18.00;91.60;;;;;;4995310;28;20023;-84
2023/10/09 12:16:49;;;;;;;7.13;3.70;;;18.00;91.60;;;;;;4977741;28;20026;-84
2023/10/09 12:19:15;;;;;;;6.75;3.72;;;18.00;91.60;;;;;;4978004;28;20035;-84
2023/10/09 12:21:42;;;;;;;7.70;4.20;;;18.00;91.60;;;;;;4995320;28;20033;-84
2023/10/09 12:24:11;;;;;;;6.65;4.07;;;18.00;91.60;;;;;;4977666;28;20166;-84
2023/10/09 12:26:39;;;;;;;6.63;3.90;;;18.00;91.60;;;;;;4977831;28;20030;-84
2023/10/09 12:29:10;;;;;;;6.28;3.85;;;18.00;91.60;;;;;;4977143;28;20404;-84
2023/10/09 12:31:36;;;;;;;6.40;3.90;;;18.00;91.60;;;;;;4977795;28;20033;-84
2023/10/09 12:34:02;;;;;;;6.88;4.05;;;18.00;91.50;;;;;;4977428;28;20035;-84
2023/10/09 12:36:28;;;;;;;7.50;3.78;;;18.10;91.50;;;;;;4977514;28;20028;-84
2023/10/09 12:38:58;;;;;;;6.90;4.15;;;18.10;91.50;;;;;;4977584;28;20022;-84
2023/10/09 12:43:51;;;;;;;7.65;4.20;;;18.10;91.50;;;;;;4995101;28;20114;-84
2023/10/09 12:46:17;;;;;;;6.78;3.63;;;18.10;91.50;;;;;;4994816;28;20030;-84
2023/10/09 12:48:47;;;;;;;6.63;3.75;;;18.00;91.60;;;;;;4977154;28;20029;-84
2023/10/09 12:51:16;;;;;;;6.97;3.70;;;18.00;91.60;;;;;;4994783;28;20365;-84
2023/10/09 12:53:43;;;;;;;6.32;3.83;;;18.10;91.60;;;;;;4977104;28;20484;-84
2023/10/09 12:56:09;;;;;;;6.30;3.75;;;18.00;91.50;;;;;;4977150;28;20030;-84
2023/10/09 12:58:37;;;;;;;7.20;4.10;;;18.00;91.50;;;;;;4977094;28;20038;-84
2023/10/09 13:01:09;;;;;;;5.82;3.40;;;18.00;91.50;;;;;;4977176;28;20029;-84
2023/10/09 13:03:38;;;;;;;7.50;3.95;;;18.00;91.50;;;;;;4976912;28;20034;-84
2023/10/09 13:06:07;;;;;;;6.70;3.90;;;18.00;91.60;;;;;;4977154;28;20029;-84
2023/10/09 13:08:36;;;;;;;7.05;3.75;;;18.00;91.60;;;;;;4977073;28;20408;-84
2023/10/09 13:11:16;;;;;;;7.07;3.83;;;18.00;91.60;;;;;;4976949;28;20113;-84
2023/10/09 13:13:43;;;;;;;7.18;4.47;;;18.00;91.60;;;;;;4976761;28;20073;-84
2023/10/09 13:16:23;;;;;;;5.55;3.40;;;18.00;91.60;;;;;;4976786;28;20393;-84
2023/10/09 13:19:05;;;;;;;6.40;3.33;;;18.00;91.60;;;;;;4976768;28;20033;-84
2023/10/09 13:21:31;;;;;;;7.47;3.88;;;18.00;91.60;;;;;;4976921;28;20025;-84
2023/10/09 13:23:58;;;;;;;6.82;3.78;;;18.00;91.60;;;;;;4976434;28;20023;-84
2023/10/09 13:26:25;;;;;;;5.88;3.70;;;18.00;91.70;;;;;;4976645;28;20029;-84
2023/10/09 13:28:52;;;;;;;6.05;3.60;;;18.00;91.70;;;;;;4976604;28;20026;-84
2023/10/09 13:31:18;;;;;;;6.53;3.55;;;18.00;91.60;;;;;;4976592;28;20396;-85
2023/10/09 13:33:45;;;;;;;6.63;3.75;;;18.00;91.60;;;;;;4976367;28;20026;-84
2023/10/09 13:36:50;;;;;;;6.82;3.92;;;18.00;91.60;;;;;;4976449;28;20023;-84
2023/10/09 13:39:24;;;;;;;6.47;4.00;;;18.00;91.60;;;;;;4990564;28;20571;-84
2023/10/09 13:41:57;;;;;;;6.28;3.78;;;18.00;91.50;;;;;;4976128;28;20026;-84
2023/10/09 13:44:33;;;;;;;7.35;4.05;;;18.00;91.60;;;;;;4976103;28;20026;-84
2023/10/09 13:47:01;;;;;;;6.50;3.83;;;18.00;91.60;;;;;;4993661;28;20030;-83
2023/10/09 13:49:29;;;;;;;7.05;3.55;;;18.00;91.60;;;;;;4993782;28;20106;-84
2023/10/09 13:51:56;;;;;;;6.13;3.58;;;18.00;91.60;;;;;;4993739;28;20027;-84
2023/10/09 13:54:47;;;;;;;7.15;3.42;;;18.00;91.60;;;;;;4993373;28;20110;-84
2023/10/09 13:57:10;;;;;;;6.93;3.97;;;18.00;91.60;;;;;;4992850;28;20034;-84
2023/10/09 13:59:36;;;;;;;6.22;3.40;;;18.00;91.60;;;;;;4976462;28;20514;-84
2023/10/09 14:02:09;;;;;;;5.97;3.42;;;18.00;91.60;;;;;;4993535;28;20115;-84
2023/10/09 14:04:34;;;;;;;5.97;3.47;;;18.00;91.90;;;;;;4975989;28;20404;-84
2023/10/09 14:07:01;;;;;;;7.10;3.50;;;18.00;91.70;;;;;;4976141;28;20023;-84
2023/10/09 14:09:28;;;;;;;6.70;3.90;;;18.00;91.70;;;;;;4993493;28;20093;-84
2023/10/09 14:12:07;;;;;;;6.32;3.90;;;18.00;91.80;;;;;;4976005;28;20377;-84
2023/10/09 14:14:46;;;;;;;6.32;3.92;;;18.00;91.70;;;;;;4993301;28;20022;-82
2023/10/09 14:17:19;;;;;;;6.57;3.70;;;18.00;91.70;;;;;;4975822;28;20080;-84
2023/10/09 14:19:47;;;;;;;5.82;3.55;;;18.00;91.70;;;;;;4975931;28;20399;-83
2023/10/09 14:22:24;;;;;;;7.85;4.70;;;18.00;91.70;;;;;;4976286;28;20030;-83
2023/10/09 14:24:55;;;;;;;8.27;4.47;;;17.90;91.60;;;;;;4976097;28;20488;-84
2023/10/09 14:27:24;;;;;;;8.50;4.63;;;18.00;91.60;;;;;;4970883;28;20031;-84
2023/10/09 14:29:49;;;;;;;9.75;4.65;;;18.00;91.60;;;;;;4942365;29;20034;-84
2023/10/09 14:32:16;;;;;;;6.72;4.20;;;18.00;91.60;;;;;;4954273;29;20027;-84
2023/10/09 14:34:54;;;;;;;7.25;4.40;;;18.00;91.70;;;;;;4954313;29;20067;-85
2023/10/09 14:37:20;;;;;;;8.10;4.43;;;18.00;91.60;;;;;;4937341;29;20031;-84
2023/10/09 14:39:48;;;;;;;7.40;3.78;;;18.00;91.50;;;;;;4954659;29;20035;-84
2023/10/09 14:42:15;;;;;;;9.57;4.10;;;18.00;91.50;;;;;;4937054;29;20046;-84
2023/10/09 14:44:41;;;;;;;7.32;4.07;;;18.00;91.50;;;;;;4954296;29;20390;-83
2023/10/09 14:47:07;;;;;;;7.28;4.35;;;18.00;91.50;;;;;;4937173;29;20465;-84
2023/10/09 14:49:37;;;;;;;7.00;4.15;;;18.00;91.50;;;;;;4937308;29;20083;-84
2023/10/09 14:52:03;;;;;;;6.28;3.65;;;18.00;91.60;;;;;;4939404;29;20031;-84
2023/10/09 14:54:28;;;;;;;7.55;4.40;;;18.00;91.60;;;;;;4940910;29;20540;-83
2023/10/09 14:56:54;;;;;;;6.68;3.90;;;18.00;91.60;;;;;;4957441;29;20031;-83
2023/10/09 14:59:22;;;;;;;7.57;4.10;;;18.00;91.60;;;;;;4940925;29;20024;-84
2023/10/09 15:01:49;;;;;;;6.97;3.90;;;18.00;91.60;;;;;;4958188;29;20019;-84
2023/10/09 15:04:15;;;;;;;5.88;3.60;;;18.00;91.60;;;;;;4956785;29;20024;-83
2023/10/09 15:06:41;;;;;;;6.55;3.75;;;18.00;91.60;;;;;;4941442;29;20086;-83
2023/10/09 15:09:09;;;;;;;6.57;3.92;;;18.00;91.60;;;;;;4956804;29;20397;-84
2023/10/09 15:11:40;;;;;;;6.55;3.95;;;18.00;91.60;;;;;;4940601;29;20058;-84
2023/10/09 15:14:06;;;;;;;8.00;4.47;;;18.00;91.60;;;;;;4956618;29;20039;-84
2023/10/09 15:16:31;;;;;;;7.30;3.60;;;18.00;91.60;;;;;;4956743;29;20038;-83
2023/10/09 15:18:57;;;;;;;7.38;4.10;;;18.00;91.60;;;;;;4940466;29;20035;-83
2023/10/09 15:21:26;;;;;;;7.60;3.92;;;18.00;91.70;;;;;;4940650;29;20031;-83
2023/10/09 15:23:56;;;;;;;7.65;3.55;;;18.00;91.70;;;;;;4956290;29;20019;-83
2023/10/09 15:26:23;;;;;;;8.25;4.47;;;18.00;91.70;;;;;;4940422;29;20026;-85
2023/10/09 15:28:50;;;;;;;7.63;3.83;;;18.00;91.60;;;;;;4957719;29;20030;-84
2023/10/09 15:31:16;;;;;;;9.23;3.90;;;18.00;91.60;;;;;;4940625;29;20054;-84
2023/10/09 15:33:42;;;;;;;9.65;4.10;;;18.00;91.60;;;;;;4956025;29;20130;-84
2023/10/09 15:36:25;;;;;;;6.78;4.03;;;18.00;91.60;;;;;;4956310;29;20024;-84
2023/10/09 15:38:50;;;;;;;7.03;3.72;;;18.00;91.60;;;;;;4940431;29;20031;-84
2023/10/09 15:41:17;;;;;;;8.10;4.20;;;18.00;91.60;;;;;;4940226;29;20441;-85
2023/10/09 15:43:45;;;;;;;6.50;3.80;;;18.00;91.60;;;;;;4939963;29;20047;-85
2023/10/09 15:46:14;;;;;;;8.00;3.80;;;18.00;91.60;;;;;;4955987;29;20497;-85
2023/10/09 15:48:40;;;;;;;8.15;4.00;;;18.00;91.60;;;;;;4940118;29;20037;-84
2023/10/09 15:51:11;;;;;;;8.00;3.83;;;18.00;91.70;;;;;;4957360;29;20030;-84
2023/10/09 15:53:38;;;;;;;8.07;3.63;;;18.00;91.60;;;;;;4939996;29;20070;-85
2023/10/09 15:56:04;;;;;;;8.30;3.97;;;18.10;91.70;;;;;;4939815;29;20127;-85
2023/10/09 15:58:29;;;;;;;7.00;3.95;;;18.00;91.60;;;;;;4956206;29;20553;-83
2023/10/09 16:00:55;;;;;;;8.65;3.90;;;18.00;91.70;;;;;;4957263;29;20042;-84